Time;durP1;ratioP1;P1;durP2;ratioP2;P2;SDS_P1;SDS_P2;PMS_P1;PMS_P2;Temp;Humidity;BMP_temperature;BMP_pressure;BME280_temperature;BME280_humidity;BME280_pressure;Samples;Min_cycle;Max_cycle;Signal;HPM_P1;HPM_P2
2022/04/24 00:00:40;;;;;;;27.40;22.92;;;;;;;7.09;100.00;91100.97;2115134;28;20032;-82
2022/04/24 00:01:41;;;;;;;28.55;22.35;;;;;;;7.10;100.00;91091.81;2104401;28;20020;-81
2022/04/24 00:02:42;;;;;;;33.65;23.17;;;;;;;7.03;100.00;91100.81;2098152;28;20500;-82
2022/04/24 00:03:43;;;;;;;31.38;23.17;;;;;;;7.06;100.00;91099.91;2100586;28;20020;-82
2022/04/24 00:04:44;;;;;;;25.75;21.55;;;;;;;7.15;100.00;91099.19;2106856;28;20032;-82
2022/04/24 00:05:45;;;;;;;28.98;22.33;;;;;;;7.17;100.00;91094.16;2098388;28;20024;-81
2022/04/24 00:06:46;;;;;;;27.05;21.98;;;;;;;7.12;100.00;91088.72;2098409;28;20027;-81
2022/04/24 00:07:47;;;;;;;26.80;22.15;;;;;;;7.16;100.00;91095.34;2095733;28;20107;-81
2022/04/24 00:08:49;;;;;;;27.45;22.63;;;;;;;7.13;100.00;91092.84;2113846;28;20077;-82
2022/04/24 00:09:50;;;;;;;28.15;23.60;;;;;;;7.09;100.00;91100.22;2106929;28;20031;-82
2022/04/24 00:10:51;;;;;;;27.33;22.85;;;;;;;7.06;100.00;91091.94;2098404;28;20025;-82
2022/04/24 00:11:52;;;;;;;27.98;21.23;;;;;;;7.07;100.00;91098.75;2106821;28;20103;-81
2022/04/24 00:12:53;;;;;;;29.15;22.65;;;;;;;7.11;100.00;91087.97;2115004;28;20165;-81
2022/04/24 00:13:54;;;;;;;29.48;23.38;;;;;;;7.09;100.00;91093.00;2105658;28;20473;-82
2022/04/24 00:14:55;;;;;;;28.17;22.60;;;;;;;7.08;100.00;91096.84;2106774;28;20028;-82
2022/04/24 00:15:56;;;;;;;25.13;22.05;;;;;;;7.07;100.00;91090.78;2106396;28;20020;-81
2022/04/24 00:16:58;;;;;;;28.83;22.75;;;;;;;7.13;100.00;91087.53;2098350;28;20378;-80
2022/04/24 00:17:59;;;;;;;29.42;23.73;;;;;;;7.15;100.00;91087.81;2110855;27;20030;-81
2022/04/24 00:19:00;;;;;;;26.45;21.67;;;;;;;7.11;100.00;91085.31;2114913;28;20046;-81
2022/04/24 00:20:01;;;;;;;27.15;22.23;;;;;;;7.14;100.00;91078.38;2123496;27;20023;-81
2022/04/24 00:21:03;;;;;;;29.88;23.58;;;;;;;7.17;100.00;91085.47;2098220;28;20474;-82
2022/04/24 00:22:04;;;;;;;26.98;22.83;;;;;;;7.14;100.00;91089.00;2090215;28;20409;-81
2022/04/24 00:23:05;;;;;;;27.50;22.35;;;;;;;7.12;100.00;91094.03;2098756;28;20025;-81
2022/04/24 00:24:06;;;;;;;28.02;22.42;;;;;;;7.14;100.00;91087.06;2114286;28;20588;-81
2022/04/24 00:25:07;;;;;;;28.83;22.88;;;;;;;7.20;100.00;91090.63;2108457;28;20031;-82
2022/04/24 00:26:08;;;;;;;28.27;22.75;;;;;;;7.21;100.00;91091.38;2114740;27;20512;-82
2022/04/24 00:27:09;;;;;;;25.63;21.52;;;;;;;7.19;100.00;91086.47;2114200;28;20053;-82
2022/04/24 00:28:10;;;;;;;27.95;22.40;;;;;;;7.22;100.00;91082.94;2104883;28;20016;-82
2022/04/24 00:29:11;;;;;;;31.10;23.75;;;;;;;7.22;100.00;91090.19;2098222;28;20056;-81
2022/04/24 00:30:12;;;;;;;27.58;22.77;;;;;;;7.13;100.00;91082.22;2090068;28;20028;-82
2022/04/24 00:31:13;;;;;;;27.10;22.00;;;;;;;7.13;100.00;91088.25;2106551;28;20376;-81
2022/04/24 00:32:15;;;;;;;29.98;22.83;;;;;;;7.18;100.00;91087.66;2114943;28;20034;-81
2022/04/24 00:33:16;;;;;;;26.17;21.90;;;;;;;7.19;100.00;91091.06;2106538;28;20758;-82
2022/04/24 00:34:17;;;;;;;27.58;22.40;;;;;;;7.14;100.00;91083.69;2106482;28;20046;-82
2022/04/24 00:35:18;;;;;;;30.15;23.05;;;;;;;7.14;100.00;91091.66;2098304;28;20095;-82
2022/04/24 00:36:19;;;;;;;29.08;23.38;;;;;;;7.13;100.00;91096.25;2106414;28;20036;-82
2022/04/24 00:37:21;;;;;;;29.48;22.98;;;;;;;7.35;100.00;91090.75;2106194;28;20119;-82
2022/04/24 00:38:22;;;;;;;27.08;22.45;;;;;;;7.36;100.00;91094.88;2106234;28;20032;-80
2022/04/24 00:39:23;;;;;;;28.35;22.60;;;;;;;7.29;100.00;91101.25;2114161;28;20573;-82
2022/04/24 00:40:24;;;;;;;29.73;23.02;;;;;;;7.20;100.00;91097.84;2114948;28;20070;-81
2022/04/24 00:41:25;;;;;;;29.55;23.17;;;;;;;7.18;100.00;91100.97;2106554;28;20110;-82
2022/04/24 00:42:26;;;;;;;26.90;21.40;;;;;;;7.21;100.00;91107.31;2101855;28;20500;-81
2022/04/24 00:43:27;;;;;;;26.08;22.13;;;;;;;7.30;100.00;91116.00;2098126;28;20025;-82
2022/04/24 00:44:28;;;;;;;27.50;22.23;;;;;;;7.31;100.00;91119.41;2106627;28;20023;-81
2022/04/24 00:45:29;;;;;;;25.85;22.25;;;;;;;7.48;100.00;91127.81;2106570;28;20028;-81
2022/04/24 00:46:42;;;;;;;27.67;22.75;;;;;;;7.56;100.00;91131.66;2114984;28;20714;-82
2022/04/24 00:47:43;;;;;;;27.55;21.77;;;;;;;7.47;100.00;91147.63;2101344;28;20063;-81
2022/04/24 00:48:44;;;;;;;28.40;21.80;;;;;;;7.31;100.00;91153.94;2106511;28;20024;-80
2022/04/24 00:49:45;;;;;;;26.35;21.30;;;;;;;7.32;100.00;91150.84;2114208;28;20024;-81
2022/04/24 00:50:47;;;;;;;27.60;22.25;;;;;;;7.24;100.00;91159.56;2114738;28;20030;-81
2022/04/24 00:51:48;;;;;;;27.83;22.60;;;;;;;7.26;100.00;91162.53;2098236;28;20078;-82
2022/04/24 00:52:49;;;;;;;29.70;22.58;;;;;;;7.31;100.00;91157.34;2105438;28;20029;-81
2022/04/24 00:53:56;;;;;;;30.10;22.25;;;;;;;7.25;100.00;91161.78;2106281;28;20423;-81
2022/04/24 00:54:57;;;;;;;27.67;23.50;;;;;;;7.37;100.00;91165.47;2116691;27;20055;-81
2022/04/24 00:55:58;;;;;;;29.63;23.38;;;;;;;7.49;100.00;91164.59;2106292;28;20023;-80
2022/04/24 00:57:00;;;;;;;28.58;23.67;;;;;;;7.44;100.00;91167.84;2106587;28;20533;-81
2022/04/24 00:58:19;;;;;;;30.75;23.67;;;;;;;7.31;100.00;91162.66;2102426;28;20075;-82
2022/04/24 00:59:20;;;;;;;29.17;23.63;;;;;;;7.29;100.00;91161.66;2111503;27;20527;-81
2022/04/24 01:00:21;;;;;;;29.90;24.15;;;;;;;7.18;100.00;91164.72;2106238;28;20028;-82
2022/04/24 01:01:22;;;;;;;30.27;24.10;;;;;;;7.19;100.00;91158.22;2089246;28;20024;-81
2022/04/24 01:02:23;;;;;;;30.85;23.65;;;;;;;7.30;100.00;91155.16;2089227;28;20071;-82
2022/04/24 01:03:24;;;;;;;28.73;24.17;;;;;;;7.29;100.00;91157.06;2089830;28;20056;-81
2022/04/24 01:04:25;;;;;;;28.38;23.65;;;;;;;7.27;100.00;91158.69;2098130;28;20047;-83
2022/04/24 01:05:27;;;;;;;30.60;24.83;;;;;;;7.42;100.00;91154.25;2106239;28;20113;-84
2022/04/24 01:06:31;;;;;;;33.95;25.30;;;;;;;7.32;100.00;91150.84;2097977;28;20028;-82
2022/04/24 01:07:32;;;;;;;34.95;25.30;;;;;;;7.27;100.00;91148.78;2106285;28;20024;-83
2022/04/24 01:08:35;;;;;;;30.85;24.52;;;;;;;7.29;100.00;91146.44;2111196;28;20024;-83
2022/04/24 01:09:37;;;;;;;32.42;24.95;;;;;;;7.39;100.00;91147.16;2106609;28;20024;-82
2022/04/24 01:10:38;;;;;;;35.03;24.55;;;;;;;7.34;100.00;91142.44;2106261;28;20031;-83
2022/04/24 01:11:40;;;;;;;34.25;24.77;;;;;;;7.29;100.00;91143.03;2098092;28;20036;-83
2022/04/24 01:12:41;;;;;;;31.25;25.65;;;;;;;7.27;100.00;91130.19;2098029;28;20057;-82
2022/04/24 01:13:42;;;;;;;31.55;25.75;;;;;;;7.25;100.00;91137.13;2097397;28;20025;-81
2022/04/24 01:14:43;;;;;;;32.15;26.17;;;;;;;7.21;100.00;91128.56;2097590;28;20508;-83
2022/04/24 01:15:44;;;;;;;31.95;25.90;;;;;;;7.21;100.00;91126.66;2106356;28;20354;-83
2022/04/24 01:16:47;;;;;;;30.67;24.52;;;;;;;7.27;100.00;91130.19;2097842;28;20020;-83
2022/04/24 01:17:48;;;;;;;34.33;26.00;;;;;;;7.18;100.00;91124.13;2098360;28;20024;-82
2022/04/24 01:18:57;;;;;;;32.80;26.10;;;;;;;7.21;100.00;91128.56;2114674;28;20400;-85
2022/04/24 01:19:58;;;;;;;30.90;25.53;;;;;;;7.23;100.00;91134.91;2099133;28;20035;-85
2022/04/24 01:21:07;;;;;;;34.75;26.33;;;;;;;7.16;100.00;91137.13;2097774;28;20530;-83
2022/04/24 01:22:08;;;;;;;43.55;29.40;;;;;;;7.21;100.00;91136.53;2091775;28;20025;-83
2022/04/24 01:23:09;;;;;;;37.33;27.83;;;;;;;7.30;100.00;91136.53;2089780;28;20028;-83
2022/04/24 01:24:12;;;;;;;36.58;26.67;;;;;;;7.25;100.00;91148.50;2097917;28;20024;-84
2022/04/24 01:25:14;;;;;;;34.65;24.90;;;;;;;7.31;100.00;91151.28;2113872;28;20106;-82
2022/04/24 01:26:15;;;;;;;32.60;24.75;;;;;;;7.29;100.00;91141.13;2105743;28;20027;-84
2022/04/24 01:27:16;;;;;;;30.00;24.80;;;;;;;7.30;100.00;91145.25;2114720;28;20532;-85
2022/04/24 01:28:17;;;;;;;33.17;26.17;;;;;;;7.37;100.00;91154.81;2114850;28;20102;-84
2022/04/24 01:29:18;;;;;;;29.38;25.33;;;;;;;7.24;100.00;91144.38;2106493;28;20396;-83
2022/04/24 01:30:19;;;;;;;34.47;25.92;;;;;;;7.16;100.00;91153.06;2106407;27;20039;-85
2022/04/24 01:31:20;;;;;;;30.65;25.33;;;;;;;7.17;100.00;91157.19;2106263;28;20520;-83
2022/04/24 01:32:21;;;;;;;32.42;24.88;;;;;;;7.15;100.00;91152.31;2106284;28;20024;-83
2022/04/24 01:33:22;;;;;;;31.98;24.85;;;;;;;7.14;100.00;91156.16;2097952;28;20420;-83
2022/04/24 01:34:23;;;;;;;33.38;25.25;;;;;;;7.23;100.00;91163.41;2106292;28;20020;-86
2022/04/24 01:35:24;;;;;;;31.10;24.80;;;;;;;7.21;100.00;91155.88;2097940;28;20492;-86
2022/04/24 01:36:26;;;;;;;29.25;23.73;;;;;;;7.16;100.00;91169.00;2097859;28;20436;-85
2022/04/24 01:37:27;;;;;;;33.47;25.15;;;;;;;7.12;100.00;91163.09;2097672;28;20105;-85
2022/04/24 01:38:30;;;;;;;28.40;24.42;;;;;;;7.06;100.00;91161.00;2097522;28;20107;-84
2022/04/24 01:39:32;;;;;;;30.55;24.40;;;;;;;7.13;100.00;91165.31;2098660;28;20362;-85
2022/04/24 01:40:33;;;;;;;28.92;23.88;;;;;;;7.03;100.00;91161.91;2098154;28;20119;-85
2022/04/24 01:41:35;;;;;;;29.33;23.77;;;;;;;7.07;100.00;91159.84;2097807;28;20596;-84
2022/04/24 01:42:36;;;;;;;33.40;24.77;;;;;;;7.24;100.00;91160.31;2098015;28;20020;-84
2022/04/24 01:43:37;;;;;;;33.05;25.02;;;;;;;7.30;100.00;91161.19;2096445;28;20023;-86
2022/04/24 01:44:38;;;;;;;29.98;24.40;;;;;;;7.26;100.00;91162.53;2089685;28;20120;-81
2022/04/24 01:45:39;;;;;;;32.17;24.27;;;;;;;7.26;100.00;91162.53;2106188;28;20081;-83
2022/04/24 01:46:40;;;;;;;31.95;24.98;;;;;;;7.20;100.00;91157.06;2114527;28;20595;-85
2022/04/24 01:47:41;;;;;;;29.33;24.23;;;;;;;7.17;100.00;91167.81;2106252;28;20062;-82
2022/04/24 01:48:42;;;;;;;31.75;25.02;;;;;;;7.09;100.00;91166.63;2114657;28;20630;-85
2022/04/24 01:49:43;;;;;;;32.58;25.48;;;;;;;7.17;100.00;91168.56;2114225;28;20545;-86
2022/04/24 01:50:44;;;;;;;30.67;24.92;;;;;;;7.16;100.00;91156.47;2114172;28;20076;-82
2022/04/24 01:51:45;;;;;;;30.75;25.40;;;;;;;7.14;100.00;91171.34;2108368;28;20016;-83
2022/04/24 01:52:46;;;;;;;33.58;25.95;;;;;;;7.16;100.00;91159.13;2097949;28;20093;-84
2022/04/24 01:53:47;;;;;;;35.92;25.83;;;;;;;7.13;100.00;91172.53;2097638;28;20020;-86
2022/04/24 01:54:48;;;;;;;32.33;25.23;;;;;;;7.11;100.00;91169.56;2104588;28;20612;-86
2022/04/24 01:55:49;;;;;;;31.45;26.05;;;;;;;7.09;100.00;91163.97;2097908;28;20017;-82
2022/04/24 01:56:50;;;;;;;30.52;24.63;;;;;;;7.14;100.00;91163.38;2097664;28;20052;-85
2022/04/24 01:57:51;;;;;;;30.08;24.23;;;;;;;7.14;100.00;91172.09;2097760;28;20025;-85
2022/04/24 01:58:52;;;;;;;31.42;25.27;;;;;;;7.31;100.00;91165.31;2097975;28;20051;-84
2022/04/24 01:59:53;;;;;;;32.72;25.55;;;;;;;7.36;100.00;91160.59;2097788;28;20032;-85
2022/04/24 02:00:55;;;;;;;35.00;26.40;;;;;;;7.27;100.00;91158.69;2097682;28;20028;-85
2022/04/24 02:01:55;;;;;;;31.75;24.75;;;;;;;7.31;100.00;91164.59;2097369;28;20848;-86
2022/04/24 02:02:56;;;;;;;31.08;25.05;;;;;;;7.22;100.00;91156.59;2106191;28;20031;-85
2022/04/24 02:03:57;;;;;;;36.25;25.40;;;;;;;7.17;100.00;91173.13;2097405;28;20429;-84
2022/04/24 02:04:58;;;;;;;31.60;26.08;;;;;;;7.12;100.00;91155.13;2097746;28;20025;-87
2022/04/24 02:06:01;;;;;;;30.52;25.10;;;;;;;7.19;100.00;91163.53;2097635;28;20033;-86
2022/04/24 02:07:02;;;;;;;32.10;25.58;;;;;;;7.29;100.00;91156.31;2098388;28;20482;-84
2022/04/24 02:08:03;;;;;;;34.40;25.95;;;;;;;7.32;100.00;91166.06;2097784;28;20017;-85
2022/04/24 02:09:04;;;;;;;30.52;25.13;;;;;;;7.24;100.00;91160.31;2114550;28;20125;-83
2022/04/24 02:10:06;;;;;;;33.05;27.25;;;;;;;7.24;100.00;91164.88;2105977;28;20047;-86
2022/04/24 02:12:50;;;;;;;;;;;;;;;7.27;100.00;91164.72;2140143;27;20174;-84
2022/04/24 02:13:51;;;;;;;31.10;23.80;;;;;;;7.17;100.00;91162.50;2138507;27;19948;-84
2022/04/24 02:14:52;;;;;;;33.13;25.98;;;;;;;7.28;100.00;91166.19;2121488;27;20019;-82
2022/04/24 02:15:53;;;;;;;32.40;25.73;;;;;;;7.22;100.00;91169.91;2121851;27;20480;-83
2022/04/24 02:16:54;;;;;;;34.55;26.92;;;;;;;7.18;100.00;91171.97;2121884;27;20472;-84
2022/04/24 02:17:56;;;;;;;32.33;26.52;;;;;;;7.09;100.00;91177.25;2121634;28;20056;-81
2022/04/24 02:18:57;;;;;;;32.92;26.58;;;;;;;7.08;100.00;91173.88;2113418;27;20469;-83
2022/04/24 02:19:58;;;;;;;34.30;26.77;;;;;;;7.10;100.00;91170.75;2121958;27;20020;-83
2022/04/24 02:20:59;;;;;;;36.42;28.08;;;;;;;7.08;100.00;91173.88;2130223;27;20027;-84
2022/04/24 02:22:00;;;;;;;36.30;27.92;;;;;;;7.11;100.00;91172.97;2130526;27;20030;-86
2022/04/24 02:23:02;;;;;;;35.08;28.40;;;;;;;7.14;100.00;91174.00;2121832;27;20023;-83
2022/04/24 02:24:03;;;;;;;33.13;26.85;;;;;;;7.17;100.00;91178.47;2121916;27;20088;-85
2022/04/24 02:25:04;;;;;;;33.30;27.23;;;;;;;7.20;100.00;91177.56;2113047;28;20535;-84
2022/04/24 02:26:05;;;;;;;36.60;26.77;;;;;;;7.22;100.00;91177.88;2112538;27;20024;-83
2022/04/24 02:27:06;;;;;;;33.65;26.25;;;;;;;7.26;100.00;91189.81;2113279;28;20089;-83
2022/04/24 02:28:07;;;;;;;32.38;25.92;;;;;;;7.46;100.00;91186.00;2113341;27;20022;-84
2022/04/24 02:29:08;;;;;;;29.10;23.35;;;;;;;7.53;100.00;91185.69;2113175;28;20020;-85
2022/04/24 02:30:09;;;;;;;26.27;21.02;;;;;;;7.45;100.00;91190.56;2104721;28;20016;-84
2022/04/24 02:31:11;;;;;;;20.67;16.17;;;;;;;7.31;100.00;91199.13;2104953;28;20058;-82
2022/04/24 02:32:12;;;;;;;19.45;16.15;;;;;;;7.29;100.00;91198.84;2113507;27;20073;-83
2022/04/24 02:33:13;;;;;;;12.70;11.13;;;;;;;7.30;100.00;91208.28;2113194;28;20024;-84
2022/04/24 02:34:14;;;;;;;11.75;10.15;;;;;;;7.14;100.00;91203.97;2113367;28;20440;-84
2022/04/24 02:35:15;;;;;;;7.75;6.75;;;;;;;7.04;100.00;91205.88;2113034;28;20055;-84
2022/04/24 02:36:16;;;;;;;7.55;6.78;;;;;;;7.05;100.00;91211.94;2113283;28;20044;-85
2022/04/24 02:37:17;;;;;;;7.38;6.20;;;;;;;6.93;100.00;91208.19;2113126;28;20028;-85
2022/04/24 02:38:18;;;;;;;4.70;4.30;;;;;;;6.89;100.00;91204.97;2104302;28;20024;-84
2022/04/24 02:39:19;;;;;;;3.45;3.15;;;;;;;6.80;100.00;91213.66;2104753;28;20036;-83
2022/04/24 02:40:21;;;;;;;4.47;3.80;;;;;;;6.69;100.00;91210.66;2104735;28;20028;-83
2022/04/24 02:41:25;;;;;;;3.55;3.17;;;;;;;6.72;100.00;91209.78;2113623;27;20375;-83
2022/04/24 02:42:25;;;;;;;4.15;3.13;;;;;;;6.55;100.00;91224.47;2113573;28;20107;-84
2022/04/24 02:43:26;;;;;;;3.83;2.63;;;;;;;6.37;100.00;91221.75;2113180;28;20054;-87
2022/04/24 02:44:27;;;;;;;3.08;2.78;;;;;;;6.45;100.00;91225.59;2104824;28;20031;-86
2022/04/24 02:45:28;;;;;;;2.88;2.63;;;;;;;6.34;100.00;91223.34;2104746;28;20545;-85
2022/04/24 02:46:29;;;;;;;3.47;3.10;;;;;;;6.33;100.00;91237.03;2104752;28;20028;-87
2022/04/24 02:47:30;;;;;;;2.20;2.00;;;;;;;6.24;100.00;91229.78;2121568;27;20024;-89
2022/04/24 02:48:31;;;;;;;1.77;1.63;;;;;;;6.20;100.00;91231.81;2130101;27;20030;-85
2022/04/24 02:49:32;;;;;;;1.98;1.60;;;;;;;6.13;100.00;91240.75;2112903;28;20363;-87
2022/04/24 02:50:33;;;;;;;1.55;1.45;;;;;;;5.93;100.00;91240.34;2104401;28;20024;-85
2022/04/24 02:51:35;;;;;;;1.88;1.50;;;;;;;5.93;100.00;91240.34;2113125;27;20377;-86
2022/04/24 02:52:49;;;;;;;1.85;1.40;;;;;;;5.84;100.00;91253.47;2113352;28;20103;-84
2022/04/24 02:53:50;;;;;;;1.30;1.08;;;;;;;5.91;100.00;91256.63;2114932;28;20097;-86
2022/04/24 02:54:51;;;;;;;1.00;1.00;;;;;;;5.88;100.00;91251.44;2113038;28;20468;-88
2022/04/24 02:55:52;;;;;;;1.90;0.85;;;;;;;5.88;100.00;91251.44;2124274;27;20118;-87
2022/04/24 02:56:53;;;;;;;1.08;0.77;;;;;;;5.75;100.00;91257.56;2120356;28;20023;-84
2022/04/24 02:57:54;;;;;;;1.13;0.82;;;;;;;5.54;100.00;91253.72;2111864;28;20110;-86
2022/04/24 02:58:56;;;;;;;4.97;0.70;;;;;;;5.48;100.00;91268.66;2115612;27;20030;-85
2022/04/24 02:59:57;;;;;;;1.10;0.75;;;;;;;5.48;100.00;91265.28;2120639;27;20111;-85
2022/04/24 03:00:59;;;;;;;0.63;0.63;;;;;;;5.36;100.00;91264.16;2104570;28;20027;-88
2022/04/24 03:02:00;;;;;;;1.67;0.60;;;;;;;5.40;100.00;91270.09;2104302;28;20412;-86
2022/04/24 03:03:01;;;;;;;1.05;0.80;;;;;;;5.40;100.00;91270.09;2113260;27;20028;-88
2022/04/24 03:04:02;;;;;;;1.42;0.60;;;;;;;5.36;100.00;91269.47;2121437;27;20030;-88
2022/04/24 03:05:03;;;;;;;0.40;0.40;;;;;;;5.33;100.00;91272.22;2130046;27;20027;-87
2022/04/24 03:06:05;;;;;;;1.08;0.30;;;;;;;5.29;100.00;91278.34;2112630;28;20024;-86
2022/04/24 03:07:06;;;;;;;0.63;0.40;;;;;;;5.40;100.00;91278.03;2104537;28;20031;-87
2022/04/24 03:08:08;;;;;;;1.13;0.50;;;;;;;5.25;100.00;91284.94;2104756;28;20052;-86
2022/04/24 03:09:09;;;;;;;0.60;0.60;;;;;;;5.27;100.00;91283.34;2104624;28;20040;-86
2022/04/24 03:10:10;;;;;;;1.17;0.50;;;;;;;5.21;100.00;91289.59;2104594;28;20020;-85
2022/04/24 03:11:11;;;;;;;1.40;0.30;;;;;;;4.99;100.00;91286.88;2106826;28;20051;-85
2022/04/24 03:12:12;;;;;;;1.08;0.30;;;;;;;5.07;100.00;91295.34;2104208;28;20043;-87
2022/04/24 03:13:13;;;;;;;1.95;0.40;;;;;;;5.04;100.00;91289.72;2112813;28;20023;-87
2022/04/24 03:14:14;;;;;;;1.73;0.30;;;;;;;5.06;100.00;91297.25;2114096;28;20473;-87
2022/04/24 03:15:15;;;;;;;0.73;0.30;;;;;;;4.95;100.00;91292.28;2113017;28;20026;-86
2022/04/24 03:16:16;;;;;;;0.32;0.30;;;;;;;4.86;100.00;91302.03;2104592;28;20028;-86
2022/04/24 03:17:17;;;;;;;0.32;0.32;;;;;;;4.76;100.00;91303.81;2121307;28;20051;-88
2022/04/24 03:18:18;;;;;;;0.20;0.20;;;;;;;4.70;100.00;91302.88;2119791;28;20027;-88
2022/04/24 03:19:19;;;;;;;0.95;0.40;;;;;;;4.68;100.00;91300.63;2104541;28;20052;-86
2022/04/24 03:20:22;;;;;;;0.30;0.30;;;;;;;4.65;100.00;91296.19;2121414;27;20491;-86
2022/04/24 03:21:23;;;;;;;0.73;0.30;;;;;;;4.74;100.00;91312.19;2116244;28;20019;-85
2022/04/24 03:22:25;;;;;;;0.52;0.30;;;;;;;4.73;100.00;91305.41;2104500;28;20017;-86
2022/04/24 03:23:26;;;;;;;0.63;0.20;;;;;;;4.73;100.00;91308.03;2099639;28;20111;-87
2022/04/24 03:24:27;;;;;;;0.38;0.20;;;;;;;4.69;100.00;91304.03;2106741;28;20055;-87
2022/04/24 03:25:28;;;;;;;2.05;0.20;;;;;;;4.72;100.00;91313.78;2115082;28;20400;-88
2022/04/24 03:26:29;;;;;;;0.52;0.20;;;;;;;4.64;100.00;91312.50;2105747;28;20024;-86
2022/04/24 03:27:30;;;;;;;0.52;0.20;;;;;;;4.71;100.00;91309.66;2105981;28;20456;-87
2022/04/24 03:28:31;;;;;;;2.50;0.30;;;;;;;4.67;100.00;91316.94;2093878;28;20042;-87
2022/04/24 03:29:32;;;;;;;0.10;0.10;;;;;;;4.72;100.00;91319.81;2101988;28;20028;-86
2022/04/24 03:30:33;;;;;;;0.30;0.20;;;;;;;4.76;100.00;91322.34;2098604;28;20595;-87
2022/04/24 03:31:34;;;;;;;0.35;0.35;;;;;;;4.67;100.00;91316.94;2098741;28;20036;-86
2022/04/24 03:32:37;;;;;;;0.38;0.25;;;;;;;4.74;100.00;91309.56;2115675;28;20024;-85
2022/04/24 03:33:38;;;;;;;0.88;0.30;;;;;;;4.62;100.00;91314.81;2106988;28;20085;-85
2022/04/24 03:34:39;;;;;;;0.32;0.20;;;;;;;4.42;100.00;91312.34;2090376;28;20025;-87
2022/04/24 03:35:40;;;;;;;0.20;0.20;;;;;;;4.26;100.00;91318.47;2113159;27;20020;-87
2022/04/24 03:36:41;;;;;;;0.52;0.52;;;;;;;4.33;100.00;91314.88;2124155;27;20107;-88
2022/04/24 03:37:43;;;;;;;0.95;0.32;;;;;;;4.26;100.00;91313.91;2115137;28;20019;-87
2022/04/24 03:38:44;;;;;;;0.30;0.30;;;;;;;4.22;100.00;91315.91;2115391;27;20496;-89
2022/04/24 03:39:45;;;;;;;3.63;0.25;;;;;;;4.43;100.00;91311.91;2115471;28;20025;-86
2022/04/24 03:40:46;;;;;;;0.40;0.20;;;;;;;4.39;100.00;91311.31;2115424;28;20019;-86
2022/04/24 03:41:47;;;;;;;0.20;0.15;;;;;;;4.34;100.00;91308.41;2106946;28;20023;-88
2022/04/24 03:42:48;;;;;;;2.67;0.30;;;;;;;4.24;100.00;91300.38;2098824;28;20023;-86
2022/04/24 03:43:49;;;;;;;1.23;0.20;;;;;;;4.09;100.00;91311.75;2098645;28;20027;-85
2022/04/24 03:44:50;;;;;;;2.28;0.32;;;;;;;4.09;100.00;91306.47;2090494;28;20064;-85
2022/04/24 03:45:51;;;;;;;0.63;0.38;;;;;;;4.29;100.00;91305.13;2090194;28;20040;-88
2022/04/24 03:46:52;;;;;;;0.20;0.20;;;;;;;4.31;100.00;91317.94;2090451;28;20377;-85
2022/04/24 03:47:53;;;;;;;0.10;0.10;;;;;;;4.15;100.00;91299.50;2098558;28;20028;-86
2022/04/24 03:48:54;;;;;;;0.50;0.20;;;;;;;4.28;100.00;91298.38;2107075;28;20475;-87
2022/04/24 03:49:54;;;;;;;0.40;0.20;;;;;;;4.33;100.00;91307.69;2106113;28;20099;-85
2022/04/24 03:50:55;;;;;;;0.52;0.20;;;;;;;4.18;100.00;91298.66;2106975;28;20050;-87
2022/04/24 03:51:56;;;;;;;0.35;0.20;;;;;;;4.05;100.00;91311.84;2115366;28;20028;-88
2022/04/24 03:52:57;;;;;;;0.65;0.22;;;;;;;4.27;100.00;91312.03;2115388;28;20484;-85
2022/04/24 03:53:58;;;;;;;1.02;0.28;;;;;;;4.26;100.00;91311.28;2106951;28;20024;-85
2022/04/24 03:54:59;;;;;;;0.28;0.22;;;;;;;4.28;100.00;91308.19;2100980;28;20375;-88
2022/04/24 03:56:00;;;;;;;0.55;0.20;;;;;;;4.24;100.00;91300.38;2098717;28;20025;-85
2022/04/24 03:57:01;;;;;;;0.40;0.20;;;;;;;4.31;100.00;91306.63;2115327;28;20023;-87
2022/04/24 03:58:02;;;;;;;12.52;0.30;;;;;;;4.15;100.00;91302.16;2106938;28;20027;-88
2022/04/24 03:59:03;;;;;;;0.28;0.28;;;;;;;4.04;100.00;91297.91;2098616;28;20027;-86
2022/04/24 04:00:07;;;;;;;0.10;0.10;;;;;;;4.16;100.00;91303.63;2106952;28;20142;-86
2022/04/24 04:01:08;;;;;;;1.13;0.30;;;;;;;4.10;100.00;91298.13;2107027;28;20028;-86
2022/04/24 04:02:09;;;;;;;1.35;0.20;;;;;;;4.23;100.00;91300.78;2106148;28;20841;-88
2022/04/24 04:03:10;;;;;;;0.10;0.10;;;;;;;4.17;100.00;91305.88;2098430;28;20028;-86
2022/04/24 04:04:31;;;;;;;1.75;0.15;;;;;;;4.16;100.00;91296.44;2106840;28;20435;-85
2022/04/24 04:05:36;;;;;;;0.13;0.10;;;;;;;3.96;100.00;91291.31;2112504;27;20496;-87
2022/04/24 04:06:37;;;;;;;0.13;0.13;;;;;;;3.93;100.00;91281.56;2115675;27;20022;-86
2022/04/24 04:07:38;;;;;;;0.15;0.15;;;;;;;3.91;100.00;91275.97;2115627;28;20511;-86
2022/04/24 04:08:39;;;;;;;0.20;0.20;;;;;;;3.89;100.00;91282.81;2113836;28;20027;-85
2022/04/24 04:09:40;;;;;;;0.20;0.20;;;;;;;3.75;100.00;91286.59;2098656;28;20032;-86
2022/04/24 04:10:41;;;;;;;0.25;0.20;;;;;;;3.72;100.00;91290.03;2090335;28;20017;-80
2022/04/24 04:11:42;;;;;;;0.40;0.30;;;;;;;3.79;100.00;91285.34;2090273;28;20033;-84
2022/04/24 04:12:43;;;;;;;0.10;0.10;;;;;;;3.67;100.00;91277.34;2098064;28;20520;-84
2022/04/24 04:13:44;;;;;;;0.20;0.17;;;;;;;3.60;100.00;91272.25;2106254;28;20020;-85
2022/04/24 04:14:45;;;;;;;0.10;0.10;;;;;;;3.62;100.00;91285.78;2098106;28;20021;-85
2022/04/24 04:15:46;;;;;;;0.10;0.10;;;;;;;3.59;100.00;91278.69;2090291;28;20017;-85
2022/04/24 04:16:49;;;;;;;0.40;0.20;;;;;;;3.65;100.00;91269.84;2098564;28;20023;-85
2022/04/24 04:17:50;;;;;;;0.17;0.13;;;;;;;3.67;100.00;91275.44;2115503;28;20034;-87
2022/04/24 04:18:51;;;;;;;0.43;0.22;;;;;;;3.53;100.00;91271.28;2115004;28;20680;-86
2022/04/24 04:19:52;;;;;;;1.45;0.20;;;;;;;3.58;100.00;91274.56;2098286;28;20021;-86
2022/04/24 04:20:52;;;;;;;0.22;0.22;;;;;;;3.68;100.00;91270.91;2090109;28;20536;-85
2022/04/24 04:21:53;;;;;;;2.03;1.80;;;;;;;3.68;100.00;91271.66;2090169;28;20044;-86
2022/04/24 04:22:55;;;;;;;0.35;0.30;;;;;;;3.66;100.00;91278.50;2098483;28;20594;-83
2022/04/24 04:23:56;;;;;;;0.50;0.30;;;;;;;3.61;100.00;91265.81;2110723;28;20031;-84
2022/04/24 04:24:58;;;;;;;0.10;0.10;;;;;;;3.57;100.00;91270.44;2115099;28;20042;-83
2022/04/24 04:25:59;;;;;;;0.30;0.30;;;;;;;3.65;100.00;91264.56;2114386;27;20138;-84
2022/04/24 04:27:00;;;;;;;0.20;0.20;;;;;;;3.67;100.00;91278.09;2106919;28;20031;-84
2022/04/24 04:28:06;;;;;;;1.95;0.15;;;;;;;3.62;100.00;91269.94;2103397;28;20020;-86
2022/04/24 04:29:07;;;;;;;0.17;0.17;;;;;;;3.58;100.00;91269.28;2098935;28;20221;-88
2022/04/24 04:30:09;;;;;;;0.73;0.60;;;;;;;3.59;100.00;91265.47;2106847;28;20101;-86
2022/04/24 04:31:12;;;;;;;0.30;0.30;;;;;;;3.64;100.00;91270.25;2123036;27;20098;-86
2022/04/24 04:32:13;;;;;;;0.40;0.40;;;;;;;3.52;100.00;91275.09;2120197;27;20015;-85
2022/04/24 04:33:14;;;;;;;18.45;14.95;;;;;;;3.58;100.00;91277.22;2103741;28;20023;-86
2022/04/24 04:34:15;;;;;;;9.50;8.50;;;;;;;3.61;100.00;91276.38;2101402;28;20541;-85
2022/04/24 04:35:16;;;;;;;2.60;1.90;;;;;;;3.55;100.00;91273.50;2093403;28;20052;-85
2022/04/24 04:36:17;;;;;;;1.35;1.25;;;;;;;3.69;100.00;91277.69;2106082;28;20024;-83
2022/04/24 04:37:18;;;;;;;0.45;0.45;;;;;;;3.81;100.00;91282.25;2106227;28;20023;-84
2022/04/24 04:38:19;;;;;;;0.60;0.60;;;;;;;3.70;100.00;91281.81;2106020;28;20032;-86
2022/04/24 04:39:20;;;;;;;0.30;0.30;;;;;;;3.73;100.00;91271.16;2106529;28;20064;-88
2022/04/24 04:40:21;;;;;;;0.30;0.20;;;;;;;3.61;100.00;91287.69;2098204;28;20021;-85
2022/04/24 04:41:22;;;;;;;0.45;0.45;;;;;;;3.53;100.00;91273.91;2106540;28;20020;-87
2022/04/24 04:42:23;;;;;;;0.30;0.30;;;;;;;3.58;100.00;91288.50;2106595;28;20020;-86
2022/04/24 04:43:26;;;;;;;2.80;2.60;;;;;;;3.68;100.00;91284.13;2098124;28;20024;-85
2022/04/24 04:44:27;;;;;;;0.77;0.70;;;;;;;3.70;100.00;91284.44;2115299;28;20053;-86
2022/04/24 04:45:34;;;;;;;0.70;0.70;;;;;;;3.64;100.00;91275.53;2114929;28;20035;-87
2022/04/24 04:46:35;;;;;;;0.30;0.30;;;;;;;3.66;100.00;91279.25;2107283;28;20130;-84
2022/04/24 04:47:36;;;;;;;0.60;0.60;;;;;;;3.64;100.00;91281.56;2098204;28;20087;-85